Terminal Aerodrome Forecast
Issued by NWS

Home | Current Version | Previous Version | Text Only | Print | Product List | Glossary On
Versions: 1 2 3 4 5 6 7 8 9 10 11 12 13 14 15 16 17 18 19 20 21 22 23 24 25 26 27 28 29 30 31 32 33
000
FTUS44 KHGX 290811 AAB
TAFIAH
TAF AMD
KIAH 290811Z 2908/3012 16016G27KT P6SM OVC015 WS020/17040KT
     FM291100 15015G25KT 5SM BR BKN015
     FM291600 16017G27KT 6SM HZ BKN022
     FM292200 16016G26KT 6SM HZ VCSH BKN020
     FM300600 18013KT P6SM VCTS BKN015CB
      TEMPO 3006/3008 33020KT TSRA BKN015CB
     FM301000 35014KT P6SM BKN040=

USA.gov is the U.S. government's official web portal to all federal, state and local government web resources and services.